Terminal Aerodrome Forecast
Issued by NWS Spokane, WA

Home | Current Version | Previous Version | Text Only | Print | Product List | Glossary On
Versions: 1 2 3 4 5 6 7 8 9 10 11 12 13 14 15 16 17 18 19 20 21 22 23 24
000
FTUS46 KOTX 232338
TAFEAT
TAF
KEAT 232338Z 2400/2424 14007KT P6SM BKN150
     FM240200 31011G20KT P6SM OVC150
     FM240900 32012KT P6SM SCT200
     FM241500 30015G24KT P6SM SCT200
     FM242000 30017G28KT P6SM SCT200=

USA.gov is the U.S. government's official web portal to all federal, state and local government web resources and services.